sensor_id;sensor_type;location;lat;lon;timestamp;P1;durP1;ratioP1;P2;durP2;ratioP2
49392;SDS011;35268;42.642;23.308;2023-03-02T00:00:05;6.35;;;3.53;;
49392;SDS011;35268;42.642;23.308;2023-03-02T00:02:40;6.57;;;3.60;;
49392;SDS011;35268;42.642;23.308;2023-03-02T00:05:07;8.70;;;3.90;;
49392;SDS011;35268;42.642;23.308;2023-03-02T00:07:34;8.45;;;3.65;;
49392;SDS011;35268;42.642;23.308;2023-03-02T00:10:01;5.55;;;3.17;;
49392;SDS011;35268;42.642;23.308;2023-03-02T00:12:30;10.77;;;4.15;;
49392;SDS011;35268;42.642;23.308;2023-03-02T00:14:57;10.75;;;4.10;;
49392;SDS011;35268;42.642;23.308;2023-03-02T00:17:22;9.52;;;3.33;;
49392;SDS011;35268;42.642;23.308;2023-03-02T00:19:54;10.07;;;4.10;;
49392;SDS011;35268;42.642;23.308;2023-03-02T00:24:59;6.35;;;3.55;;
49392;SDS011;35268;42.642;23.308;2023-03-02T00:27:25;6.10;;;2.97;;
49392;SDS011;35268;42.642;23.308;2023-03-02T00:29:53;6.85;;;4.03;;
49392;SDS011;35268;42.642;23.308;2023-03-02T00:32:19;4.95;;;2.75;;
49392;SDS011;35268;42.642;23.308;2023-03-02T00:34:45;5.05;;;2.95;;
49392;SDS011;35268;42.642;23.308;2023-03-02T00:37:10;7.45;;;2.35;;
49392;SDS011;35268;42.642;23.308;2023-03-02T00:39:36;5.45;;;2.40;;
49392;SDS011;35268;42.642;23.308;2023-03-02T00:42:01;5.28;;;2.45;;
49392;SDS011;35268;42.642;23.308;2023-03-02T00:44:26;3.75;;;2.17;;
49392;SDS011;35268;42.642;23.308;2023-03-02T00:46:52;3.55;;;2.00;;
49392;SDS011;35268;42.642;23.308;2023-03-02T00:49:17;5.15;;;2.00;;
49392;SDS011;35268;42.642;23.308;2023-03-02T00:51:43;5.20;;;2.25;;
49392;SDS011;35268;42.642;23.308;2023-03-02T00:54:08;3.75;;;2.17;;
49392;SDS011;35268;42.642;23.308;2023-03-02T00:56:34;4.68;;;2.17;;
49392;SDS011;35268;42.642;23.308;2023-03-02T00:59:03;4.28;;;2.13;;
49392;SDS011;35268;42.642;23.308;2023-03-02T01:01:29;3.72;;;1.83;;
49392;SDS011;35268;42.642;23.308;2023-03-02T01:03:55;2.95;;;1.88;;
49392;SDS011;35268;42.642;23.308;2023-03-02T01:06:20;4.25;;;2.10;;
49392;SDS011;35268;42.642;23.308;2023-03-02T01:08:46;3.80;;;1.67;;
49392;SDS011;35268;42.642;23.308;2023-03-02T01:11:12;5.05;;;2.58;;
49392;SDS011;35268;42.642;23.308;2023-03-02T01:13:46;3.35;;;1.60;;
49392;SDS011;35268;42.642;23.308;2023-03-02T01:16:12;4.75;;;1.98;;
49392;SDS011;35268;42.642;23.308;2023-03-02T01:18:38;5.95;;;2.30;;
49392;SDS011;35268;42.642;23.308;2023-03-02T01:21:05;3.63;;;2.10;;
49392;SDS011;35268;42.642;23.308;2023-03-02T01:23:35;4.60;;;2.17;;
49392;SDS011;35268;42.642;23.308;2023-03-02T01:26:01;4.43;;;2.50;;
49392;SDS011;35268;42.642;23.308;2023-03-02T01:28:26;4.78;;;2.55;;
49392;SDS011;35268;42.642;23.308;2023-03-02T01:30:52;3.08;;;2.28;;
49392;SDS011;35268;42.642;23.308;2023-03-02T01:33:18;4.40;;;2.40;;
49392;SDS011;35268;42.642;23.308;2023-03-02T01:35:45;4.45;;;2.20;;
49392;SDS011;35268;42.642;23.308;2023-03-02T01:38:11;3.60;;;1.67;;
49392;SDS011;35268;42.642;23.308;2023-03-02T01:40:37;3.20;;;1.92;;
49392;SDS011;35268;42.642;23.308;2023-03-02T01:43:05;5.43;;;2.13;;
49392;SDS011;35268;42.642;23.308;2023-03-02T01:45:49;2.88;;;1.88;;
49392;SDS011;35268;42.642;23.308;2023-03-02T01:48:28;4.10;;;2.13;;
49392;SDS011;35268;42.642;23.308;2023-03-02T01:50:57;6.05;;;1.95;;
49392;SDS011;35268;42.642;23.308;2023-03-02T01:53:25;3.53;;;1.73;;
49392;SDS011;35268;42.642;23.308;2023-03-02T01:55:52;4.10;;;2.00;;
49392;SDS011;35268;42.642;23.308;2023-03-02T01:58:18;4.15;;;2.17;;
49392;SDS011;35268;42.642;23.308;2023-03-02T02:00:44;2.67;;;1.58;;
49392;SDS011;35268;42.642;23.308;2023-03-02T02:03:13;3.40;;;1.90;;
49392;SDS011;35268;42.642;23.308;2023-03-02T02:05:44;3.28;;;1.80;;
49392;SDS011;35268;42.642;23.308;2023-03-02T02:08:18;4.07;;;2.15;;
49392;SDS011;35268;42.642;23.308;2023-03-02T02:10:44;3.72;;;1.85;;
49392;SDS011;35268;42.642;23.308;2023-03-02T02:13:10;2.85;;;1.63;;
49392;SDS011;35268;42.642;23.308;2023-03-02T02:15:35;5.82;;;2.10;;
49392;SDS011;35268;42.642;23.308;2023-03-02T02:18:02;4.15;;;1.73;;
49392;SDS011;35268;42.642;23.308;2023-03-02T02:20:35;7.72;;;1.85;;
49392;SDS011;35268;42.642;23.308;2023-03-02T02:26:04;3.15;;;1.63;;
49392;SDS011;35268;42.642;23.308;2023-03-02T02:29:02;3.75;;;1.50;;
49392;SDS011;35268;42.642;23.308;2023-03-02T02:34:11;3.00;;;1.42;;
49392;SDS011;35268;42.642;23.308;2023-03-02T02:37:07;2.78;;;1.48;;
49392;SDS011;35268;42.642;23.308;2023-03-02T02:39:40;3.15;;;1.83;;
49392;SDS011;35268;42.642;23.308;2023-03-02T02:42:11;4.03;;;2.10;;
49392;SDS011;35268;42.642;23.308;2023-03-02T02:44:44;4.25;;;1.73;;
49392;SDS011;35268;42.642;23.308;2023-03-02T02:47:19;7.57;;;2.05;;
49392;SDS011;35268;42.642;23.308;2023-03-02T02:49:47;4.50;;;1.90;;
49392;SDS011;35268;42.642;23.308;2023-03-02T02:52:14;2.95;;;1.45;;
49392;SDS011;35268;42.642;23.308;2023-03-02T02:54:43;2.63;;;1.50;;
49392;SDS011;35268;42.642;23.308;2023-03-02T02:57:11;6.07;;;1.90;;
49392;SDS011;35268;42.642;23.308;2023-03-02T02:59:40;2.90;;;1.70;;
49392;SDS011;35268;42.642;23.308;2023-03-02T03:02:18;5.38;;;1.52;;
49392;SDS011;35268;42.642;23.308;2023-03-02T03:04:45;2.95;;;1.67;;
49392;SDS011;35268;42.642;23.308;2023-03-02T03:07:17;2.80;;;1.77;;
49392;SDS011;35268;42.642;23.308;2023-03-02T03:09:46;6.13;;;2.33;;
49392;SDS011;35268;42.642;23.308;2023-03-02T03:12:16;3.00;;;1.60;;
49392;SDS011;35268;42.642;23.308;2023-03-02T03:14:46;3.28;;;1.75;;
49392;SDS011;35268;42.642;23.308;2023-03-02T03:17:14;3.90;;;1.85;;
49392;SDS011;35268;42.642;23.308;2023-03-02T03:19:40;3.85;;;1.63;;
49392;SDS011;35268;42.642;23.308;2023-03-02T03:22:08;4.13;;;1.70;;
49392;SDS011;35268;42.642;23.308;2023-03-02T03:24:36;3.20;;;1.90;;
49392;SDS011;35268;42.642;23.308;2023-03-02T03:27:02;3.40;;;1.70;;
49392;SDS011;35268;42.642;23.308;2023-03-02T03:29:29;3.10;;;1.83;;
49392;SDS011;35268;42.642;23.308;2023-03-02T03:31:55;4.65;;;2.10;;
49392;SDS011;35268;42.642;23.308;2023-03-02T03:34:22;3.35;;;1.95;;
49392;SDS011;35268;42.642;23.308;2023-03-02T03:36:48;3.75;;;2.00;;
49392;SDS011;35268;42.642;23.308;2023-03-02T03:39:15;3.30;;;1.75;;
49392;SDS011;35268;42.642;23.308;2023-03-02T03:41:41;3.47;;;1.80;;
49392;SDS011;35268;42.642;23.308;2023-03-02T03:44:07;7.75;;;1.95;;
49392;SDS011;35268;42.642;23.308;2023-03-02T03:46:33;3.72;;;1.80;;
49392;SDS011;35268;42.642;23.308;2023-03-02T03:48:59;4.72;;;2.33;;
49392;SDS011;35268;42.642;23.308;2023-03-02T03:51:24;5.47;;;1.98;;
49392;SDS011;35268;42.642;23.308;2023-03-02T03:53:50;3.03;;;1.73;;
49392;SDS011;35268;42.642;23.308;2023-03-02T03:56:26;3.33;;;2.03;;
49392;SDS011;35268;42.642;23.308;2023-03-02T03:59:03;4.28;;;1.70;;
49392;SDS011;35268;42.642;23.308;2023-03-02T04:01:34;6.50;;;1.95;;
49392;SDS011;35268;42.642;23.308;2023-03-02T04:04:02;5.47;;;1.92;;
49392;SDS011;35268;42.642;23.308;2023-03-02T04:06:28;5.82;;;2.70;;
49392;SDS011;35268;42.642;23.308;2023-03-02T04:08:54;4.13;;;2.33;;
49392;SDS011;35268;42.642;23.308;2023-03-02T04:11:19;4.25;;;2.40;;
49392;SDS011;35268;42.642;23.308;2023-03-02T04:13:45;6.05;;;3.33;;
49392;SDS011;35268;42.642;23.308;2023-03-02T04:16:10;7.50;;;4.20;;
49392;SDS011;35268;42.642;23.308;2023-03-02T04:18:36;5.10;;;2.80;;
49392;SDS011;35268;42.642;23.308;2023-03-02T04:21:02;4.72;;;2.40;;
49392;SDS011;35268;42.642;23.308;2023-03-02T04:23:27;9.10;;;2.55;;
49392;SDS011;35268;42.642;23.308;2023-03-02T04:25:53;7.50;;;2.70;;
49392;SDS011;35268;42.642;23.308;2023-03-02T04:28:18;4.95;;;2.03;;
49392;SDS011;35268;42.642;23.308;2023-03-02T04:30:44;3.60;;;2.30;;
49392;SDS011;35268;42.642;23.308;2023-03-02T04:33:09;4.45;;;2.80;;
49392;SDS011;35268;42.642;23.308;2023-03-02T04:35:36;3.55;;;2.28;;
49392;SDS011;35268;42.642;23.308;2023-03-02T04:38:01;3.63;;;1.92;;
49392;SDS011;35268;42.642;23.308;2023-03-02T04:40:27;5.80;;;2.55;;
49392;SDS011;35268;42.642;23.308;2023-03-02T04:42:52;3.38;;;2.05;;
49392;SDS011;35268;42.642;23.308;2023-03-02T04:45:18;6.03;;;2.20;;
49392;SDS011;35268;42.642;23.308;2023-03-02T04:47:43;5.15;;;2.72;;
49392;SDS011;35268;42.642;23.308;2023-03-02T04:50:10;4.25;;;2.60;;
49392;SDS011;35268;42.642;23.308;2023-03-02T04:52:37;5.53;;;2.95;;
49392;SDS011;35268;42.642;23.308;2023-03-02T04:55:03;4.80;;;3.38;;
49392;SDS011;35268;42.642;23.308;2023-03-02T04:57:30;5.43;;;3.00;;
49392;SDS011;35268;42.642;23.308;2023-03-02T04:59:56;5.63;;;2.92;;
49392;SDS011;35268;42.642;23.308;2023-03-02T05:02:21;8.60;;;2.72;;
49392;SDS011;35268;42.642;23.308;2023-03-02T05:04:47;6.10;;;2.83;;
49392;SDS011;35268;42.642;23.308;2023-03-02T05:07:12;6.30;;;2.63;;
49392;SDS011;35268;42.642;23.308;2023-03-02T05:09:38;4.70;;;2.63;;
49392;SDS011;35268;42.642;23.308;2023-03-02T05:12:04;11.85;;;2.95;;
49392;SDS011;35268;42.642;23.308;2023-03-02T05:14:29;4.15;;;2.90;;
49392;SDS011;35268;42.642;23.308;2023-03-02T05:16:55;5.63;;;3.22;;
49392;SDS011;35268;42.642;23.308;2023-03-02T05:19:21;8.95;;;3.00;;
49392;SDS011;35268;42.642;23.308;2023-03-02T05:21:46;6.75;;;3.42;;
49392;SDS011;35268;42.642;23.308;2023-03-02T05:24:12;6.30;;;3.60;;
49392;SDS011;35268;42.642;23.308;2023-03-02T05:26:38;6.57;;;3.70;;
49392;SDS011;35268;42.642;23.308;2023-03-02T05:29:04;5.78;;;3.75;;
49392;SDS011;35268;42.642;23.308;2023-03-02T05:31:34;6.25;;;3.70;;
49392;SDS011;35268;42.642;23.308;2023-03-02T05:36:29;6.90;;;4.18;;
49392;SDS011;35268;42.642;23.308;2023-03-02T05:38:54;6.32;;;4.43;;
49392;SDS011;35268;42.642;23.308;2023-03-02T05:41:20;6.40;;;4.07;;
49392;SDS011;35268;42.642;23.308;2023-03-02T05:43:45;6.85;;;4.25;;
49392;SDS011;35268;42.642;23.308;2023-03-02T05:46:11;6.78;;;4.25;;
49392;SDS011;35268;42.642;23.308;2023-03-02T05:48:36;7.32;;;4.18;;
49392;SDS011;35268;42.642;23.308;2023-03-02T05:51:02;8.48;;;5.25;;
49392;SDS011;35268;42.642;23.308;2023-03-02T05:53:28;10.05;;;4.95;;
49392;SDS011;35268;42.642;23.308;2023-03-02T05:55:53;10.05;;;4.72;;
49392;SDS011;35268;42.642;23.308;2023-03-02T05:58:19;8.70;;;5.00;;
49392;SDS011;35268;42.642;23.308;2023-03-02T06:00:45;7.53;;;4.90;;
49392;SDS011;35268;42.642;23.308;2023-03-02T06:03:12;10.52;;;5.05;;
49392;SDS011;35268;42.642;23.308;2023-03-02T06:05:37;9.98;;;5.65;;
49392;SDS011;35268;42.642;23.308;2023-03-02T06:08:03;10.15;;;5.55;;
49392;SDS011;35268;42.642;23.308;2023-03-02T06:10:29;8.65;;;5.22;;
49392;SDS011;35268;42.642;23.308;2023-03-02T06:12:55;8.38;;;5.25;;
49392;SDS011;35268;42.642;23.308;2023-03-02T06:15:21;13.80;;;4.85;;
49392;SDS011;35268;42.642;23.308;2023-03-02T06:17:47;9.50;;;5.20;;
49392;SDS011;35268;42.642;23.308;2023-03-02T06:20:12;10.18;;;5.50;;
49392;SDS011;35268;42.642;23.308;2023-03-02T06:22:40;10.70;;;5.55;;
49392;SDS011;35268;42.642;23.308;2023-03-02T06:25:10;11.93;;;7.43;;
49392;SDS011;35268;42.642;23.308;2023-03-02T06:27:38;7.65;;;4.95;;
49392;SDS011;35268;42.642;23.308;2023-03-02T06:30:10;8.02;;;5.15;;
49392;SDS011;35268;42.642;23.308;2023-03-02T06:32:38;9.48;;;5.45;;
49392;SDS011;35268;42.642;23.308;2023-03-02T06:35:04;10.13;;;5.80;;
49392;SDS011;35268;42.642;23.308;2023-03-02T06:37:30;9.32;;;5.47;;
49392;SDS011;35268;42.642;23.308;2023-03-02T06:39:56;12.63;;;7.13;;
49392;SDS011;35268;42.642;23.308;2023-03-02T06:42:25;11.13;;;6.55;;
49392;SDS011;35268;42.642;23.308;2023-03-02T06:44:51;13.73;;;6.57;;
49392;SDS011;35268;42.642;23.308;2023-03-02T06:47:18;9.63;;;6.22;;
49392;SDS011;35268;42.642;23.308;2023-03-02T06:49:45;12.55;;;6.35;;
49392;SDS011;35268;42.642;23.308;2023-03-02T06:52:11;11.60;;;6.53;;
49392;SDS011;35268;42.642;23.308;2023-03-02T06:54:38;12.52;;;6.10;;
49392;SDS011;35268;42.642;23.308;2023-03-02T06:57:04;10.70;;;6.47;;
49392;SDS011;35268;42.642;23.308;2023-03-02T06:59:30;11.48;;;6.53;;
49392;SDS011;35268;42.642;23.308;2023-03-02T07:01:55;10.60;;;6.00;;
49392;SDS011;35268;42.642;23.308;2023-03-02T07:04:20;15.10;;;5.88;;
49392;SDS011;35268;42.642;23.308;2023-03-02T07:06:46;14.90;;;6.55;;
49392;SDS011;35268;42.642;23.308;2023-03-02T07:09:12;12.65;;;6.75;;
49392;SDS011;35268;42.642;23.308;2023-03-02T07:11:37;14.32;;;6.97;;
49392;SDS011;35268;42.642;23.308;2023-03-02T07:14:02;14.43;;;6.18;;
49392;SDS011;35268;42.642;23.308;2023-03-02T07:16:28;11.63;;;6.00;;
49392;SDS011;35268;42.642;23.308;2023-03-02T07:18:55;14.48;;;6.93;;
49392;SDS011;35268;42.642;23.308;2023-03-02T07:21:20;10.23;;;7.00;;
49392;SDS011;35268;42.642;23.308;2023-03-02T07:23:46;11.32;;;6.85;;
49392;SDS011;35268;42.642;23.308;2023-03-02T07:26:11;14.13;;;7.07;;
49392;SDS011;35268;42.642;23.308;2023-03-02T07:28:37;11.32;;;7.53;;
49392;SDS011;35268;42.642;23.308;2023-03-02T07:31:04;9.80;;;5.47;;
49392;SDS011;35268;42.642;23.308;2023-03-02T07:33:32;11.73;;;6.30;;
49392;SDS011;35268;42.642;23.308;2023-03-02T07:35:57;11.90;;;6.35;;
49392;SDS011;35268;42.642;23.308;2023-03-02T07:38:23;12.93;;;7.28;;
49392;SDS011;35268;42.642;23.308;2023-03-02T07:40:48;10.30;;;6.30;;
49392;SDS011;35268;42.642;23.308;2023-03-02T07:43:14;14.52;;;6.00;;
49392;SDS011;35268;42.642;23.308;2023-03-02T07:45:39;11.20;;;6.53;;
49392;SDS011;35268;42.642;23.308;2023-03-02T07:48:05;11.85;;;5.93;;
49392;SDS011;35268;42.642;23.308;2023-03-02T07:50:31;12.35;;;6.57;;
49392;SDS011;35268;42.642;23.308;2023-03-02T07:52:56;13.20;;;7.00;;
49392;SDS011;35268;42.642;23.308;2023-03-02T07:55:22;13.68;;;6.63;;
49392;SDS011;35268;42.642;23.308;2023-03-02T07:57:47;12.07;;;7.38;;
49392;SDS011;35268;42.642;23.308;2023-03-02T08:00:14;10.10;;;6.30;;
49392;SDS011;35268;42.642;23.308;2023-03-02T08:02:40;14.75;;;6.60;;
49392;SDS011;35268;42.642;23.308;2023-03-02T08:05:06;12.50;;;6.93;;
49392;SDS011;35268;42.642;23.308;2023-03-02T08:07:32;11.07;;;5.95;;
49392;SDS011;35268;42.642;23.308;2023-03-02T08:09:58;15.30;;;7.57;;
49392;SDS011;35268;42.642;23.308;2023-03-02T08:12:25;19.13;;;7.93;;
49392;SDS011;35268;42.642;23.308;2023-03-02T08:14:51;20.25;;;7.28;;
49392;SDS011;35268;42.642;23.308;2023-03-02T08:17:16;15.32;;;7.32;;
49392;SDS011;35268;42.642;23.308;2023-03-02T08:19:42;10.60;;;5.53;;
49392;SDS011;35268;42.642;23.308;2023-03-02T08:22:07;9.68;;;5.70;;
49392;SDS011;35268;42.642;23.308;2023-03-02T08:24:33;10.43;;;6.05;;
49392;SDS011;35268;42.642;23.308;2023-03-02T08:27:01;17.77;;;7.22;;
49392;SDS011;35268;42.642;23.308;2023-03-02T08:29:27;14.10;;;7.30;;
49392;SDS011;35268;42.642;23.308;2023-03-02T08:31:52;10.38;;;6.22;;
49392;SDS011;35268;42.642;23.308;2023-03-02T08:34:18;11.63;;;6.68;;
49392;SDS011;35268;42.642;23.308;2023-03-02T08:36:44;11.45;;;5.25;;
49392;SDS011;35268;42.642;23.308;2023-03-02T08:39:09;8.35;;;5.35;;
49392;SDS011;35268;42.642;23.308;2023-03-02T08:41:35;9.02;;;5.10;;
49392;SDS011;35268;42.642;23.308;2023-03-02T08:44:00;12.57;;;5.10;;
49392;SDS011;35268;42.642;23.308;2023-03-02T08:46:26;8.40;;;4.93;;
49392;SDS011;35268;42.642;23.308;2023-03-02T08:48:51;8.73;;;4.80;;
49392;SDS011;35268;42.642;23.308;2023-03-02T08:51:19;9.13;;;5.10;;
49392;SDS011;35268;42.642;23.308;2023-03-02T08:53:46;10.82;;;5.70;;
49392;SDS011;35268;42.642;23.308;2023-03-02T08:56:27;18.33;;;8.05;;
49392;SDS011;35268;42.642;23.308;2023-03-02T08:58:58;10.32;;;6.22;;
49392;SDS011;35268;42.642;23.308;2023-03-02T09:01:27;13.52;;;7.05;;
49392;SDS011;35268;42.642;23.308;2023-03-02T09:03:54;10.60;;;6.43;;
49392;SDS011;35268;42.642;23.308;2023-03-02T09:06:21;10.88;;;6.03;;
49392;SDS011;35268;42.642;23.308;2023-03-02T09:08:47;14.07;;;6.28;;
49392;SDS011;35268;42.642;23.308;2023-03-02T09:11:13;8.95;;;5.47;;
49392;SDS011;35268;42.642;23.308;2023-03-02T09:13:38;9.18;;;5.05;;
49392;SDS011;35268;42.642;23.308;2023-03-02T09:16:04;8.43;;;5.18;;
49392;SDS011;35268;42.642;23.308;2023-03-02T09:18:30;10.35;;;6.15;;
49392;SDS011;35268;42.642;23.308;2023-03-02T09:20:56;16.30;;;7.35;;
49392;SDS011;35268;42.642;23.308;2023-03-02T09:23:22;9.70;;;5.97;;
49392;SDS011;35268;42.642;23.308;2023-03-02T09:25:49;10.85;;;6.05;;
49392;SDS011;35268;42.642;23.308;2023-03-02T09:28:16;7.03;;;3.70;;
49392;SDS011;35268;42.642;23.308;2023-03-02T09:30:46;9.05;;;3.17;;
49392;SDS011;35268;42.642;23.308;2023-03-02T09:33:13;5.78;;;3.35;;
49392;SDS011;35268;42.642;23.308;2023-03-02T09:35:39;11.98;;;3.85;;
49392;SDS011;35268;42.642;23.308;2023-03-02T09:38:04;12.82;;;4.60;;
49392;SDS011;35268;42.642;23.308;2023-03-02T09:40:30;7.05;;;4.47;;
49392;SDS011;35268;42.642;23.308;2023-03-02T09:56:24;8.35;;;3.65;;
49392;SDS011;35268;42.642;23.308;2023-03-02T09:58:55;7.20;;;3.10;;
49392;SDS011;35268;42.642;23.308;2023-03-02T10:01:31;20.67;;;8.07;;
49392;SDS011;35268;42.642;23.308;2023-03-02T10:04:06;16.38;;;5.50;;
49392;SDS011;35268;42.642;23.308;2023-03-02T10:06:39;8.70;;;4.15;;
49392;SDS011;35268;42.642;23.308;2023-03-02T10:09:04;5.40;;;2.50;;
49392;SDS011;35268;42.642;23.308;2023-03-02T10:11:34;5.43;;;2.53;;
49392;SDS011;35268;42.642;23.308;2023-03-02T10:14:23;3.22;;;2.30;;
49392;SDS011;35268;42.642;23.308;2023-03-02T10:17:08;4.60;;;2.40;;
49392;SDS011;35268;42.642;23.308;2023-03-02T10:19:43;5.45;;;2.75;;
49392;SDS011;35268;42.642;23.308;2023-03-02T10:22:19;6.18;;;3.03;;
49392;SDS011;35268;42.642;23.308;2023-03-02T10:30:45;8.85;;;4.50;;
49392;SDS011;35268;42.642;23.308;2023-03-02T10:33:19;6.32;;;4.20;;
49392;SDS011;35268;42.642;23.308;2023-03-02T10:35:50;7.88;;;4.15;;
49392;SDS011;35268;42.642;23.308;2023-03-02T10:38:18;8.90;;;4.47;;
49392;SDS011;35268;42.642;23.308;2023-03-02T10:41:01;6.25;;;3.92;;
49392;SDS011;35268;42.642;23.308;2023-03-02T10:43:32;9.30;;;5.95;;
49392;SDS011;35268;42.642;23.308;2023-03-02T10:46:07;9.18;;;4.15;;
49392;SDS011;35268;42.642;23.308;2023-03-02T10:48:55;10.48;;;4.40;;
49392;SDS011;35268;42.642;23.308;2023-03-02T10:51:28;13.65;;;5.25;;
49392;SDS011;35268;42.642;23.308;2023-03-02T10:54:02;9.52;;;4.60;;
49392;SDS011;35268;42.642;23.308;2023-03-02T10:56:34;6.05;;;3.83;;
49392;SDS011;35268;42.642;23.308;2023-03-02T10:59:00;7.25;;;4.63;;
49392;SDS011;35268;42.642;23.308;2023-03-02T11:01:29;6.50;;;4.53;;
49392;SDS011;35268;42.642;23.308;2023-03-02T11:03:58;7.22;;;4.57;;
49392;SDS011;35268;42.642;23.308;2023-03-02T11:06:25;8.38;;;4.45;;
49392;SDS011;35268;42.642;23.308;2023-03-02T11:11:29;9.43;;;4.65;;
49392;SDS011;35268;42.642;23.308;2023-03-02T11:13:54;11.45;;;4.55;;
49392;SDS011;35268;42.642;23.308;2023-03-02T11:32:14;11.18;;;4.22;;
49392;SDS011;35268;42.642;23.308;2023-03-02T11:34:47;9.27;;;5.13;;
49392;SDS011;35268;42.642;23.308;2023-03-02T11:42:40;9.80;;;5.00;;
49392;SDS011;35268;42.642;23.308;2023-03-02T11:51:11;7.75;;;5.10;;
49392;SDS011;35268;42.642;23.308;2023-03-02T11:56:28;8.77;;;4.47;;
49392;SDS011;35268;42.642;23.308;2023-03-02T11:59:02;9.85;;;4.80;;
49392;SDS011;35268;42.642;23.308;2023-03-02T12:01:31;9.15;;;4.07;;
49392;SDS011;35268;42.642;23.308;2023-03-02T12:06:56;9.15;;;4.93;;
49392;SDS011;35268;42.642;23.308;2023-03-02T12:11:54;10.23;;;4.70;;
49392;SDS011;35268;42.642;23.308;2023-03-02T12:14:38;19.85;;;5.63;;
49392;SDS011;35268;42.642;23.308;2023-03-02T12:19:49;19.35;;;5.32;;
49392;SDS011;35268;42.642;23.308;2023-03-02T12:22:29;6.28;;;4.20;;
49392;SDS011;35268;42.642;23.308;2023-03-02T12:25:39;11.35;;;4.50;;
49392;SDS011;35268;42.642;23.308;2023-03-02T12:27:45;16.90;;;5.35;;
49392;SDS011;35268;42.642;23.308;2023-03-02T12:35:46;23.80;;;4.55;;
49392;SDS011;35268;42.642;23.308;2023-03-02T12:41:03;8.50;;;4.55;;
49392;SDS011;35268;42.642;23.308;2023-03-02T12:44:03;12.82;;;5.15;;
49392;SDS011;35268;42.642;23.308;2023-03-02T12:46:43;7.43;;;4.05;;
49392;SDS011;35268;42.642;23.308;2023-03-02T12:49:15;7.53;;;4.28;;
49392;SDS011;35268;42.642;23.308;2023-03-02T12:51:58;8.27;;;5.20;;
49392;SDS011;35268;42.642;23.308;2023-03-02T12:54:26;8.85;;;5.15;;
49392;SDS011;35268;42.642;23.308;2023-03-02T12:57:03;8.30;;;4.88;;
49392;SDS011;35268;42.642;23.308;2023-03-02T12:59:39;17.83;;;6.20;;
49392;SDS011;35268;42.642;23.308;2023-03-02T13:02:16;10.27;;;5.05;;
49392;SDS011;35268;42.642;23.308;2023-03-02T13:04:42;12.40;;;5.03;;
49392;SDS011;35268;42.642;23.308;2023-03-02T13:07:18;11.43;;;5.15;;
49392;SDS011;35268;42.642;23.308;2023-03-02T13:09:52;9.20;;;4.95;;
49392;SDS011;35268;42.642;23.308;2023-03-02T13:12:19;15.77;;;5.55;;
49392;SDS011;35268;42.642;23.308;2023-03-02T13:14:46;13.25;;;5.22;;
49392;SDS011;35268;42.642;23.308;2023-03-02T13:17:20;13.35;;;7.63;;
49392;SDS011;35268;42.642;23.308;2023-03-02T13:19:48;15.10;;;5.72;;
49392;SDS011;35268;42.642;23.308;2023-03-02T13:22:15;9.38;;;6.00;;
49392;SDS011;35268;42.642;23.308;2023-03-02T13:24:47;12.17;;;5.70;;
49392;SDS011;35268;42.642;23.308;2023-03-02T13:27:22;14.63;;;5.90;;
49392;SDS011;35268;42.642;23.308;2023-03-02T13:29:48;18.65;;;6.65;;
49392;SDS011;35268;42.642;23.308;2023-03-02T13:34:49;10.20;;;6.45;;
49392;SDS011;35268;42.642;23.308;2023-03-02T13:37:26;12.70;;;6.20;;
49392;SDS011;35268;42.642;23.308;2023-03-02T13:42:51;18.60;;;5.72;;
49392;SDS011;35268;42.642;23.308;2023-03-02T13:47:43;15.48;;;7.80;;
49392;SDS011;35268;42.642;23.308;2023-03-02T13:50:15;16.65;;;7.75;;
49392;SDS011;35268;42.642;23.308;2023-03-02T13:52:42;16.65;;;7.03;;
49392;SDS011;35268;42.642;23.308;2023-03-02T13:55:11;20.30;;;6.50;;
49392;SDS011;35268;42.642;23.308;2023-03-02T13:57:38;10.45;;;6.25;;
49392;SDS011;35268;42.642;23.308;2023-03-02T14:00:06;7.95;;;4.95;;
49392;SDS011;35268;42.642;23.308;2023-03-02T14:02:43;10.82;;;5.40;;
49392;SDS011;35268;42.642;23.308;2023-03-02T14:05:14;16.30;;;6.25;;
49392;SDS011;35268;42.642;23.308;2023-03-02T14:07:44;16.35;;;6.00;;
49392;SDS011;35268;42.642;23.308;2023-03-02T14:10:11;12.30;;;6.60;;
49392;SDS011;35268;42.642;23.308;2023-03-02T14:12:37;13.43;;;6.28;;
49392;SDS011;35268;42.642;23.308;2023-03-02T14:15:06;11.40;;;6.15;;
49392;SDS011;35268;42.642;23.308;2023-03-02T14:17:37;19.70;;;7.43;;
49392;SDS011;35268;42.642;23.308;2023-03-02T14:20:02;16.90;;;6.82;;
49392;SDS011;35268;42.642;23.308;2023-03-02T14:22:28;13.82;;;6.65;;
49392;SDS011;35268;42.642;23.308;2023-03-02T14:24:54;17.63;;;7.18;;
49392;SDS011;35268;42.642;23.308;2023-03-02T14:27:19;20.60;;;6.85;;
49392;SDS011;35268;42.642;23.308;2023-03-02T14:29:51;17.17;;;7.28;;
49392;SDS011;35268;42.642;23.308;2023-03-02T14:32:17;17.67;;;6.45;;
49392;SDS011;35268;42.642;23.308;2023-03-02T14:34:42;11.02;;;6.30;;
49392;SDS011;35268;42.642;23.308;2023-03-02T14:37:15;20.05;;;7.68;;
49392;SDS011;35268;42.642;23.308;2023-03-02T14:39:45;15.52;;;6.90;;
49392;SDS011;35268;42.642;23.308;2023-03-02T14:42:13;20.75;;;7.50;;
49392;SDS011;35268;42.642;23.308;2023-03-02T14:44:41;10.15;;;6.72;;
49392;SDS011;35268;42.642;23.308;2023-03-02T14:47:07;14.38;;;7.70;;
49392;SDS011;35268;42.642;23.308;2023-03-02T14:49:34;19.15;;;6.70;;
49392;SDS011;35268;42.642;23.308;2023-03-02T14:54:52;15.23;;;7.40;;
49392;SDS011;35268;42.642;23.308;2023-03-02T14:57:22;17.65;;;7.50;;
49392;SDS011;35268;42.642;23.308;2023-03-02T14:59:50;12.50;;;7.95;;
49392;SDS011;35268;42.642;23.308;2023-03-02T15:02:17;17.92;;;6.32;;
49392;SDS011;35268;42.642;23.308;2023-03-02T15:04:44;12.35;;;7.25;;
49392;SDS011;35268;42.642;23.308;2023-03-02T15:07:10;18.17;;;7.63;;
49392;SDS011;35268;42.642;23.308;2023-03-02T15:09:37;20.70;;;7.82;;
49392;SDS011;35268;42.642;23.308;2023-03-02T15:12:03;12.05;;;7.38;;
49392;SDS011;35268;42.642;23.308;2023-03-02T15:14:29;14.60;;;7.38;;
49392;SDS011;35268;42.642;23.308;2023-03-02T15:16:55;12.82;;;6.47;;
49392;SDS011;35268;42.642;23.308;2023-03-02T15:19:20;13.75;;;6.75;;
49392;SDS011;35268;42.642;23.308;2023-03-02T15:21:46;10.40;;;7.05;;
49392;SDS011;35268;42.642;23.308;2023-03-02T15:24:11;19.90;;;7.90;;
49392;SDS011;35268;42.642;23.308;2023-03-02T15:26:37;12.18;;;7.03;;
49392;SDS011;35268;42.642;23.308;2023-03-02T15:29:03;13.90;;;7.38;;
49392;SDS011;35268;42.642;23.308;2023-03-02T15:31:29;12.48;;;7.82;;
49392;SDS011;35268;42.642;23.308;2023-03-02T15:33:55;12.27;;;6.88;;
49392;SDS011;35268;42.642;23.308;2023-03-02T15:36:20;15.60;;;7.15;;
49392;SDS011;35268;42.642;23.308;2023-03-02T15:38:50;14.40;;;7.65;;
49392;SDS011;35268;42.642;23.308;2023-03-02T15:41:16;11.63;;;7.32;;
49392;SDS011;35268;42.642;23.308;2023-03-02T15:43:43;13.27;;;6.97;;
49392;SDS011;35268;42.642;23.308;2023-03-02T15:46:09;15.88;;;7.68;;
49392;SDS011;35268;42.642;23.308;2023-03-02T15:48:35;14.73;;;6.50;;
49392;SDS011;35268;42.642;23.308;2023-03-02T15:51:02;12.68;;;6.70;;
49392;SDS011;35268;42.642;23.308;2023-03-02T15:53:30;11.80;;;6.85;;
49392;SDS011;35268;42.642;23.308;2023-03-02T15:55:58;10.45;;;6.57;;
49392;SDS011;35268;42.642;23.308;2023-03-02T15:58:23;11.43;;;6.43;;
49392;SDS011;35268;42.642;23.308;2023-03-02T16:00:49;14.02;;;6.60;;
49392;SDS011;35268;42.642;23.308;2023-03-02T16:03:17;11.75;;;7.25;;